Terminal Aerodrome Forecast
Issued by NWS Bismarck, ND

Home | Current Version | Previous Version | Text Only | Print | Product List | Glossary Off
Versions: 1 2 3 4 5 6 7 8 9 10 11 12 13 14 15 16 17 18

000
FTUS43 KBIS 191732
TAFBIS
TAF
KBIS 191732Z 1918/2018 27007KT P6SM FEW250
     FM200200 20004KT P6SM FEW250
     FM201100 25009KT P6SM SCT200
     FM201700 29017KT P6SM SCT200=

USA.gov is the U.S. government's official web portal to all federal, state and local government web resources and services.